Time;durP1;ratioP1;P1;durP2;ratioP2;P2;SDS_P1;SDS_P2;PMS_P1;PMS_P2;Temp;Humidity;BMP_temperature;BMP_pressure;BME280_temperature;BME280_humidity;BME280_pressure;Samples;Min_cycle;Max_cycle;Signal;HPM_P1;HPM_P2
2022/11/20 00:00:46;;;;;;;;;;;;;;;;;;5052799;28;20420;-58
2022/11/20 00:03:11;;;;;;;;;;;;;;;;;;5020160;28;19931;-58
2022/11/20 00:05:39;;;;;;;;;;;;;;;;;;5037920;28;19928;-58
2022/11/20 00:08:06;;;;;;;;;;;;;;;;;;5048182;28;19920;-58
2022/11/20 00:10:31;;;;;;;;;;;;;;;;;;5020576;28;19931;-58
2022/11/20 00:12:57;;;;;;;;;;;;;;;;;;5032746;28;19943;-58
2022/11/20 00:15:26;;;;;;;;;;;;;;;;;;5053696;28;20038;-58
2022/11/20 00:17:52;;;;;;;;;;;;;;;;;;5037095;28;20394;-58
2022/11/20 00:20:19;;;;;;;;;;;;;;;;;;5051175;28;19927;-58
2022/11/20 00:22:47;;;;;;;;;;;;;;;;;;5054395;28;19920;-58
2022/11/20 00:25:15;;;;;;;;;;;;;;;;;;5052073;28;19923;-58
2022/11/20 00:27:41;;;;;;;;;;;;;;;;;;5036006;28;19974;-58
2022/11/20 00:30:08;;;;;;;;;;;;;;;;;;5054486;28;19920;-58
2022/11/20 00:32:33;;;;;;;;;;;;;;;;;;5034904;28;19927;-58
2022/11/20 00:35:04;;;;;;;;;;;;;;;;;;5033749;28;20011;-58
2022/11/20 00:37:32;;;;;;;;;;;;;;;;;;5032284;28;19920;-58
2022/11/20 00:40:00;;;;;;;;;;;;;;;;;;5033110;28;19936;-58
2022/11/20 00:42:25;;;;;;;;;;;;;;;;;;5051929;28;19928;-58
2022/11/20 00:44:53;;;;;;;;;;;;;;;;;;5035151;28;20088;-58
2022/11/20 00:47:21;;;;;;;;;;;;;;;;;;5054802;28;19917;-58
2022/11/20 00:49:49;;;;;;;;;;;;;;;;;;5037477;28;20007;-58
2022/11/20 00:52:14;;;;;;;;;;;;;;;;;;5057377;28;20777;-58
2022/11/20 00:54:40;;;;;;;;;;;;;;;;;;5057282;28;19920;-59
2022/11/20 00:57:07;;;;;;;;;;;;;;;;;;5055389;28;20337;-59
2022/11/20 00:59:35;;;;;;;;;;;;;;;;;;5040360;28;20002;-58
2022/11/20 01:02:00;;;;;;;;;;;;;;;;;;5038353;28;19920;-59
2022/11/20 01:04:26;;;;;;;;;;;;;;;;;;5020070;28;20580;-58
2022/11/20 01:06:51;;;;;;;;;;;;;;;;;;5036364;28;20390;-58
2022/11/20 01:09:17;;;;;;;;;;;;;;;;;;5036869;28;19920;-58
2022/11/20 01:11:45;;;;;;;;;;;;;;;;;;5033237;28;20398;-59
2022/11/20 01:14:10;;;;;;;;;;;;;;;;;;5039993;28;19981;-59
2022/11/20 01:16:36;;;;;;;;;;;;;;;;;;5037339;28;19921;-59
2022/11/20 01:19:03;;;;;;;;;;;;;;;;;;5037904;28;19916;-63
2022/11/20 01:21:28;;;;;;;;;;;;;;;;;;5032959;28;19923;-59
2022/11/20 01:23:58;;;;;;;;;;;;;;;;;;5020474;28;19964;-59
2022/11/20 01:26:26;;;;;;;;;;;;;;;;;;5036344;28;19917;-59
2022/11/20 01:28:52;;;;;;;;;;;;;;;;;;5033695;28;20641;-58
2022/11/20 01:31:22;;;;;;;;;;;;;;;;;;5033962;28;19924;-59
2022/11/20 01:33:47;;;;;;;;;;;;;;;;;;5035732;28;19920;-59
2022/11/20 01:36:12;;;;;;;;;;;;;;;;;;5035979;28;19935;-59
2022/11/20 01:38:38;;;;;;;;;;;;;;;;;;5035345;28;19920;-59
2022/11/20 01:44:21;;;;;;;;;;;;;;;;;;5037034;28;19928;-58
2022/11/20 01:46:49;;;;;;;;;;;;;;;;;;5022567;28;20007;-58
2022/11/20 01:49:16;;;;;;;;;;;;;;;;;;5036829;28;20434;-58
2022/11/20 01:51:47;;;;;;;;;;;;;;;;;;5037511;28;20388;-58
2022/11/20 01:54:14;;;;;;;;;;;;;;;;;;5035946;28;20015;-59
2022/11/20 01:56:42;;;;;;;;;;;;;;;;;;5024142;28;20079;-59
2022/11/20 01:59:10;;;;;;;;;;;;;;;;;;5034354;28;21066;-59
2022/11/20 02:01:41;;;;;;;;;;;;;;;;;;5032588;28;19949;-59
2022/11/20 02:04:11;;;;;;;;;;;;;;;;;;5033593;28;20152;-59
2022/11/20 02:06:39;;;;;;;;;;;;;;;;;;5052253;28;19948;-59
2022/11/20 02:09:07;;;;;;;;;;;;;;;;;;5054997;28;20695;-59
2022/11/20 02:11:35;;;;;;;;;;;;;;;;;;5038178;28;19931;-59
2022/11/20 02:14:00;;;;;;;;;;;;;;;;;;5038353;28;20834;-59
2022/11/20 02:16:28;;;;;;;;;;;;;;;;;;5036873;28;20068;-59
2022/11/20 02:18:56;;;;;;;;;;;;;;;;;;5038253;28;19959;-59
2022/11/20 02:21:23;;;;;;;;;;;;;;;;;;5058104;28;19925;-59
2022/11/20 02:23:48;;;;;;;;;;;;;;;;;;5055289;28;19955;-59
2022/11/20 02:26:14;;;;;;;;;;;;;;;;;;5058700;28;20035;-59
2022/11/20 02:28:42;;;;;;;;;;;;;;;;;;5025792;28;20008;-59
2022/11/20 02:31:08;;;;;;;;;;;;;;;;;;5038840;28;19924;-59
2022/11/20 02:33:35;;;;;;;;;;;;;;;;;;5053186;28;19963;-59
2022/11/20 02:36:01;;;;;;;;;;;;;;;;;;5039189;28;19951;-59
2022/11/20 02:38:26;;;;;;;;;;;;;;;;;;5055576;28;20122;-59
2022/11/20 02:40:54;;;;;;;;;;;;;;;;;;5037717;28;19921;-59
2022/11/20 02:43:20;;;;;;;;;;;;;;;;;;5055226;28;20346;-59
2022/11/20 02:45:45;;;;;;;;;;;;;;;;;;5037537;28;19927;-59
2022/11/20 02:48:10;;;;;;;;;;;;;;;;;;5034915;28;19935;-59
2022/11/20 02:50:38;;;;;;;;;;;;;;;;;;5037050;28;20058;-59
2022/11/20 02:53:06;;;;;;;;;;;;;;;;;;5054736;28;19916;-59
2022/11/20 02:55:31;;;;;;;;;;;;;;;;;;5054657;28;19924;-59
2022/11/20 02:57:57;;;;;;;;;;;;;;;;;;5053159;28;20303;-57
2022/11/20 03:00:27;;;;;;;;;;;;;;;;;;5037596;28;19921;-58
2022/11/20 03:02:57;;;;;;;;;;;;;;;;;;5036391;28;19920;-58
2022/11/20 03:05:22;;;;;;;;;;;;;;;;;;5035325;28;20407;-59
2022/11/20 03:07:47;;;;;;;;;;;;;;;;;;5054783;28;19924;-57
2022/11/20 03:10:13;;;;;;;;;;;;;;;;;;5055094;28;20484;-58
2022/11/20 03:12:38;;;;;;;;;;;;;;;;;;5035971;28;19924;-58
2022/11/20 03:15:03;;;;;;;;;;;;;;;;;;5035487;28;20001;-58
2022/11/20 03:17:31;;;;;;;;;;;;;;;;;;5055292;28;20295;-58
2022/11/20 03:19:57;;;;;;;;;;;;;;;;;;5026329;28;19920;-59
2022/11/20 03:22:22;;;;;;;;;;;;;;;;;;5055105;28;19965;-59
2022/11/20 03:24:50;;;;;;;;;;;;;;;;;;5053923;28;19921;-58
2022/11/20 03:27:18;;;;;;;;;;;;;;;;;;5020990;28;19925;-58
2022/11/20 03:29:46;;;;;;;;;;;;;;;;;;5037068;28;19920;-59
2022/11/20 03:32:14;;;;;;;;;;;;;;;;;;5036511;28;20503;-59
2022/11/20 03:34:40;;;;;;;;;;;;;;;;;;5037447;28;19915;-58
2022/11/20 03:37:07;;;;;;;;;;;;;;;;;;5052765;28;19928;-59
2022/11/20 03:39:35;;;;;;;;;;;;;;;;;;5027875;28;20291;-58
2022/11/20 03:42:44;;;;;;;;;;;;;;;;;;5021863;28;20376;-59
2022/11/20 03:44:48;;;;;;;;;;;;;;;;;;5051728;28;19958;-58
2022/11/20 03:47:13;;;;;;;;;;;;;;;;;;5055205;28;19991;-58
2022/11/20 03:49:41;;;;;;;;;;;;;;;;;;5054103;28;19920;-59
2022/11/20 03:52:09;;;;;;;;;;;;;;;;;;5051809;28;19924;-59
2022/11/20 03:54:34;;;;;;;;;;;;;;;;;;5025524;28;20573;-59
2022/11/20 03:56:59;;;;;;;;;;;;;;;;;;5033489;28;20044;-58
2022/11/20 03:59:27;;;;;;;;;;;;;;;;;;5053762;28;20780;-58
2022/11/20 04:01:56;;;;;;;;;;;;;;;;;;5054642;28;19970;-59
2022/11/20 04:04:21;;;;;;;;;;;;;;;;;;5055460;28;20043;-58
2022/11/20 04:06:56;;;;;;;;;;;;;;;;;;5038174;28;19965;-58
2022/11/20 04:09:24;;;;;;;;;;;;;;;;;;5037891;28;19920;-58
2022/11/20 04:11:52;;;;;;;;;;;;;;;;;;5055730;28;19942;-59
2022/11/20 04:14:17;;;;;;;;;;;;;;;;;;5034945;28;19924;-59
2022/11/20 04:16:42;;;;;;;;;;;;;;;;;;5036373;28;20237;-59
2022/11/20 04:19:08;;;;;;;;;;;;;;;;;;5054665;28;19928;-58
2022/11/20 04:21:38;;;;;;;;;;;;;;;;;;5053999;28;19927;-59
2022/11/20 04:24:06;;;;;;;;;;;;;;;;;;5053017;28;19919;-58
2022/11/20 04:26:34;;;;;;;;;;;;;;;;;;5054228;28;19927;-59
2022/11/20 04:29:01;;;;;;;;;;;;;;;;;;5036438;28;19917;-58
2022/11/20 04:31:26;;;;;;;;;;;;;;;;;;5054326;28;20296;-58
2022/11/20 04:33:51;;;;;;;;;;;;;;;;;;5054192;28;20011;-58
2022/11/20 04:36:19;;;;;;;;;;;;;;;;;;5053574;28;20585;-58
2022/11/20 04:38:48;;;;;;;;;;;;;;;;;;5054585;28;19974;-59
2022/11/20 04:41:13;;;;;;;;;;;;;;;;;;5054470;28;19927;-58
2022/11/20 04:43:39;;;;;;;;;;;;;;;;;;5053007;28;19916;-58
2022/11/20 04:46:04;;;;;;;;;;;;;;;;;;5034916;28;20125;-58
2022/11/20 04:48:32;;;;;;;;;;;;;;;;;;5036026;28;21737;-58
2022/11/20 04:50:57;;;;;;;;;;;;;;;;;;5023524;28;19982;-58
2022/11/20 04:53:24;;;;;;;;;;;;;;;;;;5054907;28;19917;-59
2022/11/20 04:55:50;;;;;;;;;;;;;;;;;;5035321;28;19962;-58
2022/11/20 04:58:15;;;;;;;;;;;;;;;;;;5052730;28;20341;-59
2022/11/20 05:00:43;;;;;;;;;;;;;;;;;;5053197;28;19923;-58
2022/11/20 05:03:08;;;;;;;;;;;;;;;;;;5053964;28;19985;-58
2022/11/20 05:05:37;;;;;;;;;;;;;;;;;;5050913;28;19939;-59
2022/11/20 05:08:03;;;;;;;;;;;;;;;;;;5053248;28;19916;-58
2022/11/20 05:10:28;;;;;;;;;;;;;;;;;;5051643;28;19955;-59
2022/11/20 05:12:56;;;;;;;;;;;;;;;;;;5051701;28;19958;-59
2022/11/20 05:15:21;;;;;;;;;;;;;;;;;;5054491;28;20006;-59
2022/11/20 05:17:47;;;;;;;;;;;;;;;;;;5035234;28;19928;-59
2022/11/20 05:20:14;;;;;;;;;;;;;;;;;;5035612;28;19920;-59
2022/11/20 05:22:40;;;;;;;;;;;;;;;;;;5034967;28;19927;-59
2022/11/20 05:25:05;;;;;;;;;;;;;;;;;;5033323;28;19939;-58
2022/11/20 05:27:30;;;;;;;;;;;;;;;;;;5035075;28;19923;-58
2022/11/20 05:29:56;;;;;;;;;;;;;;;;;;5035292;28;19966;-59
2022/11/20 05:32:25;;;;;;;;;;;;;;;;;;5053477;28;19924;-58
2022/11/20 05:34:52;;;;;;;;;;;;;;;;;;5052293;28;19916;-59
2022/11/20 05:37:18;;;;;;;;;;;;;;;;;;5056248;28;20143;-59
2022/11/20 05:39:43;;;;;;;;;;;;;;;;;;5054729;28;20382;-59
2022/11/20 05:44:52;;;;;;;;;;;;;;;;;;5057935;28;20015;-59
2022/11/20 05:47:18;;;;;;;;;;;;;;;;;;5038378;28;21086;-58
2022/11/20 05:49:43;;;;;;;;;;;;;;;;;;5039232;28;20032;-58
2022/11/20 05:52:10;;;;;;;;;;;;;;;;;;5054181;28;20011;-59
2022/11/20 05:54:36;;;;;;;;;;;;;;;;;;5038208;28;19957;-59
2022/11/20 05:57:03;;;;;;;;;;;;;;;;;;5054756;28;19951;-59
2022/11/20 05:59:29;;;;;;;;;;;;;;;;;;5055141;28;20106;-59
2022/11/20 06:01:56;;;;;;;;;;;;;;;;;;5054702;28;19920;-59
2022/11/20 06:04:22;;;;;;;;;;;;;;;;;;5055871;28;19916;-59
2022/11/20 06:06:47;;;;;;;;;;;;;;;;;;5038753;28;19924;-59
2022/11/20 06:09:15;;;;;;;;;;;;;;;;;;5037808;28;20490;-58
2022/11/20 06:11:43;;;;;;;;;;;;;;;;;;5039836;28;20445;-59
2022/11/20 06:14:10;;;;;;;;;;;;;;;;;;5038577;28;19923;-59
2022/11/20 06:16:36;;;;;;;;;;;;;;;;;;5057003;28;20337;-59
2022/11/20 06:19:01;;;;;;;;;;;;;;;;;;5057275;28;20383;-58
2022/11/20 06:21:27;;;;;;;;;;;;;;;;;;5036608;28;19967;-59
2022/11/20 06:23:52;;;;;;;;;;;;;;;;;;5043909;28;19934;-59
2022/11/20 06:26:20;;;;;;;;;;;;;;;;;;5039201;28;19920;-59
2022/11/20 06:28:47;;;;;;;;;;;;;;;;;;5036467;28;19927;-59
2022/11/20 06:31:15;;;;;;;;;;;;;;;;;;5035721;28;20431;-59
2022/11/20 06:33:45;;;;;;;;;;;;;;;;;;5035039;28;20379;-59
2022/11/20 06:36:13;;;;;;;;;;;;;;;;;;5043529;28;21422;-59
2022/11/20 06:38:38;;;;;;;;;;;;;;;;;;5054391;28;19920;-58
2022/11/20 06:41:04;;;;;;;;;;;;;;;;;;5035375;28;19954;-58
2022/11/20 06:43:32;;;;;;;;;;;;;;;;;;5057024;28;19920;-58
2022/11/20 06:45:57;;;;;;;;;;;;;;;;;;5055365;28;20024;-58
2022/11/20 06:48:25;;;;;;;;;;;;;;;;;;5035513;28;20176;-59
2022/11/20 06:50:50;;;;;;;;;;;;;;;;;;5056013;28;20259;-58
2022/11/20 06:53:15;;;;;;;;;;;;;;;;;;5023132;28;20390;-58
2022/11/20 06:55:41;;;;;;;;;;;;;;;;;;5038410;28;19958;-58
2022/11/20 06:58:11;;;;;;;;;;;;;;;;;;5037749;28;19920;-59
2022/11/20 07:00:36;;;;;;;;;;;;;;;;;;5055467;28;19916;-59
2022/11/20 07:03:01;;;;;;;;;;;;;;;;;;5035664;28;19927;-59
2022/11/20 07:05:27;;;;;;;;;;;;;;;;;;5034458;28;19932;-59
2022/11/20 07:07:52;;;;;;;;;;;;;;;;;;5035428;28;19920;-59
2022/11/20 07:10:17;;;;;;;;;;;;;;;;;;5038130;28;19927;-59
2022/11/20 07:12:42;;;;;;;;;;;;;;;;;;5036148;28;19920;-59
2022/11/20 07:15:12;;;;;;;;;;;;;;;;;;5057706;28;20006;-59
2022/11/20 07:17:38;;;;;;;;;;;;;;;;;;5035447;28;20495;-59
2022/11/20 07:20:06;;;;;;;;;;;;;;;;;;5037437;28;19920;-59
2022/11/20 07:22:34;;;;;;;;;;;;;;;;;;5052778;28;20433;-59
2022/11/20 07:25:02;;;;;;;;;;;;;;;;;;5055076;28;19920;-59
2022/11/20 07:27:28;;;;;;;;;;;;;;;;;;5054674;28;20025;-59
2022/11/20 07:29:54;;;;;;;;;;;;;;;;;;5035429;28;19986;-59
2022/11/20 07:32:19;;;;;;;;;;;;;;;;;;5034876;28;19924;-60
2022/11/20 07:34:44;;;;;;;;;;;;;;;;;;5054956;28;19921;-58
2022/11/20 07:37:10;;;;;;;;;;;;;;;;;;5035206;28;19916;-58
2022/11/20 07:39:35;;;;;;;;;;;;;;;;;;5036276;28;19927;-60
2022/11/20 07:42:00;;;;;;;;;;;;;;;;;;5053134;28;20023;-60
2022/11/20 07:44:28;;;;;;;;;;;;;;;;;;5036070;28;19920;-59
2022/11/20 07:46:56;;;;;;;;;;;;;;;;;;5054721;28;20044;-59
2022/11/20 07:49:24;;;;;;;;;;;;;;;;;;5055253;28;20811;-59
2022/11/20 07:51:53;;;;;;;;;;;;;;;;;;5038491;28;19920;-59
2022/11/20 07:54:23;;;;;;;;;;;;;;;;;;5054416;28;20249;-59
2022/11/20 07:56:48;;;;;;;;;;;;;;;;;;5054167;28;19916;-59
2022/11/20 07:59:13;;;;;;;;;;;;;;;;;;5055039;28;19927;-58
2022/11/20 08:01:39;;;;;;;;;;;;;;;;;;5054696;28;20819;-60
2022/11/20 08:04:06;;;;;;;;;;;;;;;;;;5033865;28;20029;-58
2022/11/20 08:06:34;;;;;;;;;;;;;;;;;;5054560;28;20023;-58
2022/11/20 08:09:00;;;;;;;;;;;;;;;;;;5053563;28;20403;-58
2022/11/20 08:14:12;;;;;;;;;;;;;;;;;;5035329;28;19920;-58
2022/11/20 08:16:37;;;;;;;;;;;;;;;;;;5025156;28;19916;-58
2022/11/20 08:19:03;;;;;;;;;;;;;;;;;;5054386;28;20049;-59
2022/11/20 08:21:30;;;;;;;;;;;;;;;;;;5056003;28;19920;-59
2022/11/20 08:23:56;;;;;;;;;;;;;;;;;;5034418;28;19970;-59
2022/11/20 08:26:21;;;;;;;;;;;;;;;;;;5053214;28;19976;-59
2022/11/20 08:28:50;;;;;;;;;;;;;;;;;;5055079;28;19920;-60
2022/11/20 08:31:16;;;;;;;;;;;;;;;;;;5055520;28;20015;-61
2022/11/20 08:33:42;;;;;;;;;;;;;;;;;;5035655;28;20377;-58
2022/11/20 08:36:10;;;;;;;;;;;;;;;;;;5054280;28;21454;-59
2022/11/20 08:38:38;;;;;;;;;;;;;;;;;;5053469;28;19920;-59
2022/11/20 08:43:47;;;;;;;;;;;;;;;;;;5055153;28;20683;-59
2022/11/20 08:46:12;;;;;;;;;;;;;;;;;;5036628;28;20011;-59
2022/11/20 08:48:41;;;;;;;;;;;;;;;;;;5054834;28;19925;-59
2022/11/20 08:51:09;;;;;;;;;;;;;;;;;;5053457;28;19920;-59
2022/11/20 08:53:34;;;;;;;;;;;;;;;;;;5034938;28;20029;-59
2022/11/20 08:56:01;;;;;;;;;;;;;;;;;;5019925;28;20022;-59
2022/11/20 08:58:29;;;;;;;;;;;;;;;;;;5036998;28;19924;-58
2022/11/20 09:00:57;;;;;;;;;;;;;;;;;;5036209;28;19921;-59
2022/11/20 09:03:23;;;;;;;;;;;;;;;;;;5054144;28;19928;-59
2022/11/20 09:05:50;;;;;;;;;;;;;;;;;;5051490;28;19928;-59
2022/11/20 09:08:15;;;;;;;;;;;;;;;;;;5036080;28;19930;-59
2022/11/20 09:10:45;;;;;;;;;;;;;;;;;;5025963;28;20031;-58
2022/11/20 09:13:16;;;;;;;;;;;;;;;;;;5055956;28;20007;-59
2022/11/20 09:15:43;;;;;;;;;;;;;;;;;;5057969;28;20323;-59
2022/11/20 09:18:11;;;;;;;;;;;;;;;;;;5056961;28;20112;-59
2022/11/20 09:20:37;;;;;;;;;;;;;;;;;;5037442;28;19931;-61
2022/11/20 09:23:04;;;;;;;;;;;;;;;;;;5038736;28;19963;-59
2022/11/20 09:25:34;;;;;;;;;;;;;;;;;;5057282;28;20412;-60
2022/11/20 09:27:59;;;;;;;;;;;;;;;;;;5053992;28;20113;-60
2022/11/20 09:30:25;;;;;;;;;;;;;;;;;;5040266;28;20384;-60
2022/11/20 09:32:51;;;;;;;;;;;;;;;;;;5055581;28;19943;-60
2022/11/20 09:35:17;;;;;;;;;;;;;;;;;;5039811;28;20297;-59
2022/11/20 09:37:45;;;;;;;;;;;;;;;;;;5057710;28;19919;-60
2022/11/20 09:40:11;;;;;;;;;;;;;;;;;;5039889;28;20273;-59
2022/11/20 09:42:38;;;;;;;;;;;;;;;;;;5056601;28;20328;-59
2022/11/20 09:45:06;;;;;;;;;;;;;;;;;;5036913;28;20633;-61
2022/11/20 09:47:32;;;;;;;;;;;;;;;;;;5039913;28;19963;-60
2022/11/20 09:50:00;;;;;;;;;;;;;;;;;;5038802;28;20302;-60
2022/11/20 09:52:27;;;;;;;;;;;;;;;;;;5056990;28;20294;-60
2022/11/20 09:54:53;;;;;;;;;;;;;;;;;;5057907;28;19920;-60
2022/11/20 09:57:21;;;;;;;;;;;;;;;;;;5036673;28;19947;-60
2022/11/20 09:59:46;;;;;;;;;;;;;;;;;;5039495;28;19917;-60
2022/11/20 10:02:12;;;;;;;;;;;;;;;;;;5037831;28;20376;-60
2022/11/20 10:04:37;;;;;;;;;;;;;;;;;;5026159;28;19922;-60
2022/11/20 10:07:05;;;;;;;;;;;;;;;;;;5056392;28;19921;-58
2022/11/20 10:09:32;;;;;;;;;;;;;;;;;;5039531;28;19947;-59
2022/11/20 10:11:58;;;;;;;;;;;;;;;;;;5025830;28;19930;-59
2022/11/20 10:14:23;;;;;;;;;;;;;;;;;;5036491;28;19924;-60
2022/11/20 10:16:48;;;;;;;;;;;;;;;;;;5039195;28;19946;-60
2022/11/20 10:19:16;;;;;;;;;;;;;;;;;;5038147;28;20360;-60
2022/11/20 10:21:43;;;;;;;;;;;;;;;;;;5039793;28;20391;-60
2022/11/20 10:24:10;;;;;;;;;;;;;;;;;;5025727;28;20058;-60
2022/11/20 10:26:35;;;;;;;;;;;;;;;;;;5035385;28;20392;-60
2022/11/20 10:29:01;;;;;;;;;;;;;;;;;;5038185;28;19916;-60
2022/11/20 10:31:26;;;;;;;;;;;;;;;;;;5037612;28;20391;-60
2022/11/20 10:33:53;;;;;;;;;;;;;;;;;;5055085;28;20060;-60
2022/11/20 10:36:19;;;;;;;;;;;;;;;;;;5036827;28;20387;-60
2022/11/20 10:38:44;;;;;;;;;;;;;;;;;;5055786;28;21558;-60
2022/11/20 10:41:27;;;;;;;;;;;;;;;;;;5036595;28;20189;-61
2022/11/20 10:43:53;;;;;;;;;;;;;;;;;;5054869;28;19917;-61
2022/11/20 10:46:19;;;;;;;;;;;;;;;;;;5055993;28;19924;-60
2022/11/20 10:48:44;;;;;;;;;;;;;;;;;;5038756;28;19913;-61
2022/11/20 10:51:09;;;;;;;;;;;;;;;;;;5054510;28;21032;-61
2022/11/20 10:53:35;;;;;;;;;;;;;;;;;;5038379;28;19920;-61
2022/11/20 10:56:08;;;;;;;;;;;;;;;;;;5036563;28;20025;-60
2022/11/20 10:58:33;;;;;;;;;;;;;;;;;;5022789;28;20360;-60
2022/11/20 11:00:58;;;;;;;;;;;;;;;;;;5038393;28;19935;-61
2022/11/20 11:03:23;;;;;;;;;;;;;;;;;;5025543;28;20008;-61
2022/11/20 11:05:49;;;;;;;;;;;;;;;;;;5032269;28;19928;-61
2022/11/20 11:08:14;;;;;;;;;;;;;;;;;;5033535;28;20300;-61
2022/11/20 11:10:41;;;;;;;;;;;;;;;;;;5033033;28;19916;-61
2022/11/20 11:13:08;;;;;;;;;;;;;;;;;;5032420;28;20062;-61
2022/11/20 11:15:34;;;;;;;;;;;;;;;;;;5034115;28;20271;-61
2022/11/20 11:18:00;;;;;;;;;;;;;;;;;;5034294;28;20110;-61
2022/11/20 11:20:28;;;;;;;;;;;;;;;;;;5034179;28;20368;-61
2022/11/20 11:22:54;;;;;;;;;;;;;;;;;;5030386;28;19927;-61
2022/11/20 11:25:22;;;;;;;;;;;;;;;;;;5034710;28;19925;-60
2022/11/20 11:27:49;;;;;;;;;;;;;;;;;;5034601;28;19917;-60
2022/11/20 11:30:15;;;;;;;;;;;;;;;;;;5035770;28;19955;-60
2022/11/20 11:32:41;;;;;;;;;;;;;;;;;;5035021;28;19927;-61
2022/11/20 11:35:06;;;;;;;;;;;;;;;;;;5033465;28;19951;-61
2022/11/20 11:37:31;;;;;;;;;;;;;;;;;;5035494;28;19920;-61
2022/11/20 11:39:59;;;;;;;;;;;;;;;;;;5035172;28;20307;-60
2022/11/20 11:42:27;;;;;;;;;;;;;;;;;;5034981;28;19962;-61
2022/11/20 11:45:05;;;;;;;;;;;;;;;;;;5023505;28;19916;-61
2022/11/20 11:47:30;;;;;;;;;;;;;;;;;;5035935;28;20015;-61
2022/11/20 11:49:56;;;;;;;;;;;;;;;;;;5034724;28;19978;-61
2022/11/20 11:52:21;;;;;;;;;;;;;;;;;;5034316;28;19965;-61
2022/11/20 11:54:49;;;;;;;;;;;;;;;;;;5032384;28;19917;-62
2022/11/20 11:57:17;;;;;;;;;;;;;;;;;;5031440;28;19931;-61
2022/11/20 11:59:42;;;;;;;;;;;;;;;;;;5034312;28;20047;-63
2022/11/20 12:02:10;;;;;;;;;;;;;;;;;;5032690;28;19927;-62
2022/11/20 12:04:40;;;;;;;;;;;;;;;;;;5031937;28;20483;-63
2022/11/20 12:07:06;;;;;;;;;;;;;;;;;;5033742;28;19981;-63
2022/11/20 12:09:31;;;;;;;;;;;;;;;;;;5035360;28;19921;-63
2022/11/20 12:11:58;;;;;;;;;;;;;;;;;;5018500;28;22134;-61
2022/11/20 12:14:26;;;;;;;;;;;;;;;;;;5026235;28;19926;-61
2022/11/20 12:16:55;;;;;;;;;;;;;;;;;;5035840;28;20372;-63
2022/11/20 12:19:25;;;;;;;;;;;;;;;;;;5036652;28;20381;-62
2022/11/20 12:21:50;;;;;;;;;;;;;;;;;;5035839;28;19924;-62
2022/11/20 12:24:15;;;;;;;;;;;;;;;;;;5024724;28;20435;-62
2022/11/20 12:26:41;;;;;;;;;;;;;;;;;;5033828;28;20452;-62
2022/11/20 12:29:08;;;;;;;;;;;;;;;;;;5034170;28;19927;-62
2022/11/20 12:31:34;;;;;;;;;;;;;;;;;;5036923;28;19958;-62
2022/11/20 12:34:02;;;;;;;;;;;;;;;;;;5054475;28;19954;-62
2022/11/20 12:36:28;;;;;;;;;;;;;;;;;;5038859;28;20026;-63
2022/11/20 12:38:53;;;;;;;;;;;;;;;;;;5036452;28;19920;-63
2022/11/20 12:45:08;;;;;;;;;;;;;;;;;;5035827;28;19936;-63
2022/11/20 12:46:48;;;;;;;;;;;;;;;;;;5035825;28;20650;-63
2022/11/20 12:49:13;;;;;;;;;;;;;;;;;;5059235;28;20401;-61
2022/11/20 12:51:38;;;;;;;;;;;;;;;;;;5030211;28;19921;-63
2022/11/20 12:54:06;;;;;;;;;;;;;;;;;;5039456;28;19920;-63
2022/11/20 12:56:34;;;;;;;;;;;;;;;;;;5042000;28;20015;-63
2022/11/20 12:59:00;;;;;;;;;;;;;;;;;;5034927;28;20224;-63
2022/11/20 13:01:40;;;;;;;;;;;;;;;;;;5059930;28;20793;-62
2022/11/20 13:04:05;;;;;;;;;;;;;;;;;;5038666;28;19916;-63
2022/11/20 13:06:33;;;;;;;;;;;;;;;;;;5058437;28;20529;-63
2022/11/20 13:08:58;;;;;;;;;;;;;;;;;;5038923;28;20398;-63
2022/11/20 13:11:24;;;;;;;;;;;;;;;;;;5057210;28;20097;-62
2022/11/20 13:13:50;;;;;;;;;;;;;;;;;;5057065;28;19923;-63
2022/11/20 13:16:15;;;;;;;;;;;;;;;;;;5025652;28;20673;-63
2022/11/20 13:18:42;;;;;;;;;;;;;;;;;;5058139;28;19942;-63
2022/11/20 13:21:10;;;;;;;;;;;;;;;;;;5039064;28;21506;-63
2022/11/20 13:23:37;;;;;;;;;;;;;;;;;;5058379;28;20396;-62
2022/11/20 13:26:03;;;;;;;;;;;;;;;;;;5058505;28;19999;-62
2022/11/20 13:28:30;;;;;;;;;;;;;;;;;;5057353;28;19986;-63
2022/11/20 13:30:56;;;;;;;;;;;;;;;;;;5039795;28;20099;-62
2022/11/20 13:33:24;;;;;;;;;;;;;;;;;;5059326;28;20280;-63
2022/11/20 13:35:49;;;;;;;;;;;;;;;;;;5055101;28;19921;-63
2022/11/20 13:38:14;;;;;;;;;;;;;;;;;;5056795;28;19916;-63
2022/11/20 13:40:42;;;;;;;;;;;;;;;;;;5040560;28;20142;-63
2022/11/20 13:43:10;;;;;;;;;;;;;;;;;;5036423;28;20048;-63
2022/11/20 13:45:35;;;;;;;;;;;;;;;;;;5039915;28;19945;-63
2022/11/20 13:48:00;;;;;;;;;;;;;;;;;;5056646;28;21940;-64
2022/11/20 13:50:26;;;;;;;;;;;;;;;;;;5059927;28;19954;-63
2022/11/20 13:52:54;;;;;;;;;;;;;;;;;;5055618;28;20548;-63
2022/11/20 13:55:19;;;;;;;;;;;;;;;;;;5054428;28;21441;-63
2022/11/20 13:57:44;;;;;;;;;;;;;;;;;;5033438;28;19921;-63
2022/11/20 14:00:12;;;;;;;;;;;;;;;;;;5057188;28;20442;-63
2022/11/20 14:02:38;;;;;;;;;;;;;;;;;;5039167;28;19931;-62
2022/11/20 14:05:03;;;;;;;;;;;;;;;;;;5056416;28;19916;-63
2022/11/20 14:07:28;;;;;;;;;;;;;;;;;;5024181;28;20009;-63
2022/11/20 14:09:56;;;;;;;;;;;;;;;;;;5054810;28;19920;-63
2022/11/20 14:12:24;;;;;;;;;;;;;;;;;;5038866;28;19920;-64
2022/11/20 14:14:50;;;;;;;;;;;;;;;;;;5057446;28;19963;-63
2022/11/20 14:17:16;;;;;;;;;;;;;;;;;;5040631;28;20302;-65
2022/11/20 14:19:41;;;;;;;;;;;;;;;;;;5036500;28;20775;-65
2022/11/20 14:22:07;;;;;;;;;;;;;;;;;;5022578;28;19925;-65
2022/11/20 14:24:34;;;;;;;;;;;;;;;;;;5040054;28;20007;-64
2022/11/20 14:27:02;;;;;;;;;;;;;;;;;;5024050;28;20404;-63
2022/11/20 14:29:27;;;;;;;;;;;;;;;;;;5057090;28;19925;-63
2022/11/20 14:31:55;;;;;;;;;;;;;;;;;;5055873;28;20050;-64
2022/11/20 14:34:22;;;;;;;;;;;;;;;;;;5026731;28;19924;-64
2022/11/20 14:36:48;;;;;;;;;;;;;;;;;;5042063;28;20009;-64
2022/11/20 14:39:18;;;;;;;;;;;;;;;;;;5055236;28;19927;-63
2022/11/20 14:41:44;;;;;;;;;;;;;;;;;;5057303;28;20088;-64
2022/11/20 14:44:09;;;;;;;;;;;;;;;;;;5037270;28;20082;-64
2022/11/20 14:46:36;;;;;;;;;;;;;;;;;;5028669;28;19928;-64
2022/11/20 14:49:05;;;;;;;;;;;;;;;;;;5053975;28;19993;-64
2022/11/20 14:51:30;;;;;;;;;;;;;;;;;;5056908;28;19916;-65
2022/11/20 14:53:55;;;;;;;;;;;;;;;;;;5021874;28;19927;-65
2022/11/20 14:56:23;;;;;;;;;;;;;;;;;;5037570;28;20301;-64
2022/11/20 14:58:51;;;;;;;;;;;;;;;;;;5037185;28;19920;-63
2022/11/20 15:01:19;;;;;;;;;;;;;;;;;;5055092;28;19920;-64
2022/11/20 15:03:47;;;;;;;;;;;;;;;;;;5057678;28;19916;-64
2022/11/20 15:06:15;;;;;;;;;;;;;;;;;;5036032;28;19931;-64
2022/11/20 15:08:43;;;;;;;;;;;;;;;;;;5025976;28;19924;-64
2022/11/20 15:11:08;;;;;;;;;;;;;;;;;;5054788;28;20272;-64
2022/11/20 15:13:36;;;;;;;;;;;;;;;;;;5056015;28;20026;-65
2022/11/20 15:16:13;;;;;;;;;;;;;;;;;;5037343;28;20169;-64
2022/11/20 15:18:38;;;;;;;;;;;;;;;;;;5019882;28;20315;-65
2022/11/20 15:21:04;;;;;;;;;;;;;;;;;;5036929;28;19924;-64
2022/11/20 15:23:29;;;;;;;;;;;;;;;;;;5024254;28;19946;-64
2022/11/20 15:25:57;;;;;;;;;;;;;;;;;;5042956;28;19920;-64
2022/11/20 15:28:22;;;;;;;;;;;;;;;;;;5036164;28;21115;-64
2022/11/20 15:30:47;;;;;;;;;;;;;;;;;;5053896;28;19927;-64
2022/11/20 15:33:13;;;;;;;;;;;;;;;;;;5036035;28;19966;-64
2022/11/20 15:35:38;;;;;;;;;;;;;;;;;;5038105;28;20423;-63
2022/11/20 15:38:04;;;;;;;;;;;;;;;;;;5054380;28;20619;-64
2022/11/20 15:40:29;;;;;;;;;;;;;;;;;;5022169;28;19924;-63
2022/11/20 15:43:03;;;;;;;;;;;;;;;;;;5023141;28;19924;-64
2022/11/20 15:45:29;;;;;;;;;;;;;;;;;;5034683;28;19930;-63
2022/11/20 15:47:54;;;;;;;;;;;;;;;;;;5036272;28;19920;-62
2022/11/20 15:50:19;;;;;;;;;;;;;;;;;;5055303;28;19920;-63
2022/11/20 15:52:53;;;;;;;;;;;;;;;;;;5054878;28;19920;-63
2022/11/20 15:55:21;;;;;;;;;;;;;;;;;;5036124;28;19916;-63
2022/11/20 15:57:46;;;;;;;;;;;;;;;;;;5036152;28;19931;-64
2022/11/20 16:00:14;;;;;;;;;;;;;;;;;;5024616;28;20123;-63
2022/11/20 16:02:44;;;;;;;;;;;;;;;;;;5034841;28;20074;-63
2022/11/20 16:05:12;;;;;;;;;;;;;;;;;;5041533;28;19923;-64
2022/11/20 16:07:38;;;;;;;;;;;;;;;;;;5021505;28;19920;-63
2022/11/20 16:10:03;;;;;;;;;;;;;;;;;;5035543;28;19990;-64
2022/11/20 16:18:06;;;;;;;;;;;;;;;;;;5035387;28;20847;-64
2022/11/20 16:20:34;;;;;;;;;;;;;;;;;;5054644;28;19963;-64
2022/11/20 16:23:00;;;;;;;;;;;;;;;;;;5037222;28;20679;-65
2022/11/20 16:25:28;;;;;;;;;;;;;;;;;;5035685;28;20042;-63
2022/11/20 16:27:55;;;;;;;;;;;;;;;;;;5035369;28;20343;-63
2022/11/20 16:30:21;;;;;;;;;;;;;;;;;;5037181;28;20163;-63
2022/11/20 16:32:49;;;;;;;;;;;;;;;;;;5054513;28;19924;-64
2022/11/20 16:35:16;;;;;;;;;;;;;;;;;;5055463;28;19920;-65
2022/11/20 16:37:42;;;;;;;;;;;;;;;;;;5036175;28;19927;-65
2022/11/20 16:40:10;;;;;;;;;;;;;;;;;;5036435;28;19948;-64
2022/11/20 16:42:35;;;;;;;;;;;;;;;;;;5053384;28;19925;-63
2022/11/20 16:45:01;;;;;;;;;;;;;;;;;;5038784;28;20356;-63
2022/11/20 16:47:31;;;;;;;;;;;;;;;;;;5025257;28;19916;-63
2022/11/20 16:49:56;;;;;;;;;;;;;;;;;;5055759;28;20477;-63
2022/11/20 16:52:23;;;;;;;;;;;;;;;;;;5034216;28;19923;-63
2022/11/20 16:54:49;;;;;;;;;;;;;;;;;;5055580;28;19916;-63
2022/11/20 16:57:17;;;;;;;;;;;;;;;;;;5053653;28;19917;-62
2022/11/20 16:59:44;;;;;;;;;;;;;;;;;;5036367;28;19984;-63
2022/11/20 17:02:10;;;;;;;;;;;;;;;;;;5036153;28;19927;-64